Yumihari — JG5704 — position and weather

sailwx.info

Track history (hours):
 
Tides and Currents Weather Stations Pressure Air Temp Water Temp Dewpoint Dewpoint Depression Visibility Wind Speed Wind Dir Waves Ship Positions

Yumihari

Last reported at 2018-Feb-24 08:30 UTC. Time now 2018-Feb-24 08:37 UTC.
Position N 35°27' E 139°39'.

Length 35 m; draft 4 m.

Type: Tug. MMSI: 431000397.

Date/timePositionNaut miles runAvg speedWind from/ knotsBaromVisibWave heightAir tempDewpointWater temp
2018-Feb-24 08:30N 35°27' E 139°39'0 0.0
2018-Feb-24 08:01N 35°27' E 139°39'0 0.0
2018-Feb-24 07:30N 35°27' E 139°39'0 0.0
2018-Feb-24 07:00N 35°27' E 139°39'0 0.0
2018-Feb-24 06:31N 35°27' E 139°39'0 0.0
2018-Feb-24 06:00N 35°27' E 139°39'0 0.0
2018-Feb-24 05:30N 35°27' E 139°39'0 0.0
2018-Feb-24 05:01N 35°27' E 139°39'0 0.0
2018-Feb-24 04:30N 35°27' E 139°39'0 0.0
2018-Feb-24 04:00N 35°27' E 139°39'0 0.0
2018-Feb-24 03:30N 35°27' E 139°39'0 0.0
2018-Feb-24 03:00N 35°27' E 139°39'0 0.0
2018-Feb-24 02:30N 35°27' E 139°39'0 0.0
2018-Feb-24 02:00N 35°27' E 139°39'0 0.0
2018-Feb-24 01:30N 35°27' E 139°39'0 0.0
2018-Feb-24 01:00N 35°27' E 139°39'0 0.0
2018-Feb-24 00:31N 35°27' E 139°39'0 0.0
2018-Feb-24 00:00N 35°27' E 139°39'0 0.0
2018-Feb-23 23:30N 35°27' E 139°39'0 0.6
2018-Feb-23 23:01N 35°27' E 139°39'2 3.0
2018-Feb-23 22:31N 35°27' E 139°41'0 0.6
2018-Feb-23 22:00N 35°27' E 139°41'2 4.2
2018-Feb-23 21:30N 35°26' E 139°43'2 4.4
2018-Feb-23 21:01N 35°27' E 139°41'1 2.8
2018-Feb-23 20:30N 35°27' E 139°39'0 0.0
2018-Feb-23 20:00N 35°27' E 139°39'0 0.0
2018-Feb-23 19:30N 35°27' E 139°39'0 0.0
2018-Feb-23 19:01N 35°27' E 139°39'0 0.0
2018-Feb-23 18:30N 35°27' E 139°39'0 0.0
2018-Feb-23 18:00N 35°27' E 139°39'0 0.0
2018-Feb-23 17:30N 35°27' E 139°39'0 0.0
2018-Feb-23 17:00N 35°27' E 139°39'0 0.0
2018-Feb-23 16:30N 35°27' E 139°39'0 0.0
2018-Feb-23 16:00N 35°27' E 139°39'0 0.0
2018-Feb-23 15:30N 35°27' E 139°39'0 0.0
2018-Feb-23 15:00N 35°27' E 139°39'0 0.0
2018-Feb-23 14:30N 35°27' E 139°39'0 0.0
2018-Feb-23 14:00N 35°27' E 139°39'0 0.0
2018-Feb-23 13:30N 35°27' E 139°39'0 0.0
2018-Feb-23 07:20N 35°27' E 139°39'0 0.0
2018-Feb-23 07:00N 35°27' E 139°39'4 8.1
2018-Feb-23 06:30N 35°28' E 139°44'3 6.7
2018-Feb-23 06:00N 35°31' E 139°46'0 0.0
2018-Feb-23 05:30N 35°31' E 139°46'0 0.4
2018-Feb-23 05:00N 35°31' E 139°46'1 2.4
2018-Feb-23 04:30N 35°30' E 139°47'1 1.4
2018-Feb-23 04:00N 35°29' E 139°47'0 0.0
2018-Feb-23 03:30N 35°29' E 139°47'0 1.0
2018-Feb-23 03:01N 35°29' E 139°46'510.0
2018-Feb-23 02:31N 35°28' E 139°40'0 0.4
2018-Feb-23 02:01N 35°28' E 139°40'0 0.1
2018-Feb-23 01:31N 35°28' E 139°40'1 2.2
2018-Feb-23 01:01N 35°27' E 139°41'0 0.6
2018-Feb-23 00:31N 35°27' E 139°40'0 0.2
2018-Feb-23 00:01N 35°27' E 139°40'1 1.5
2018-Feb-22 23:31N 35°27' E 139°39'0 0.0
2018-Feb-22 23:01N 35°27' E 139°39'0 0.0
2018-Feb-22 22:30N 35°27' E 139°39'0 0.0
2018-Feb-22 22:00N 35°27' E 139°39'0 0.0
2018-Feb-22 21:31N 35°27' E 139°39'0 0.0
2018-Feb-22 21:00N 35°27' E 139°39'0 0.0
2018-Feb-22 20:30N 35°27' E 139°39'0 0.0
2018-Feb-22 20:00N 35°27' E 139°39'0 0.0
2018-Feb-22 19:30N 35°27' E 139°39'0 0.0
2018-Feb-22 19:00N 35°27' E 139°39'0 0.0
2018-Feb-22 18:31N 35°27' E 139°39'0 0.0
2018-Feb-22 18:00N 35°27' E 139°39'0 0.0
2018-Feb-22 17:30N 35°27' E 139°39'0 0.0
2018-Feb-22 17:00N 35°27' E 139°39'0 0.0
2018-Feb-22 16:30N 35°27' E 139°39'0 0.0
2018-Feb-22 16:00N 35°27' E 139°39'0 0.0
2018-Feb-22 15:30N 35°27' E 139°39'0 0.0
2018-Feb-22 15:00N 35°27' E 139°39'0 0.0
2018-Feb-22 14:31N 35°27' E 139°39'0 0.0
2018-Feb-22 14:00N 35°27' E 139°39'0 0.0
2018-Feb-22 13:31N 35°27' E 139°39'0 0.0
2018-Feb-22 13:00N 35°27' E 139°39'0 0.0
2018-Feb-22 12:30N 35°27' E 139°39'0 0.0
2018-Feb-22 12:00N 35°27' E 139°39'0 0.0
2018-Feb-22 11:31N 35°27' E 139°39'0 0.0
2018-Feb-22 11:00N 35°27' E 139°39'0 0.0
2018-Feb-22 10:30N 35°27' E 139°39'0 0.0
2018-Feb-22 10:00N 35°27' E 139°39'0 0.0
2018-Feb-22 09:30N 35°27' E 139°39'0 0.0
2018-Feb-22 09:00N 35°27' E 139°39'0 0.0
2018-Feb-22 07:11N 35°27' E 139°39'0 0.0
2018-Feb-22 07:00N 35°27' E 139°39'0 0.1
2018-Feb-22 06:30N 35°27' E 139°39'1 2.2
2018-Feb-22 06:00N 35°28' E 139°40'0 0.0
2018-Feb-22 05:31N 35°28' E 139°40'0 0.0
2018-Feb-22 05:01N 35°28' E 139°40'0 0.0
2018-Feb-22 04:30N 35°28' E 139°40'0 0.0
2018-Feb-22 04:01N 35°28' E 139°40'1 1.9
2018-Feb-22 03:30N 35°27' E 139°41'0 0.4
2018-Feb-22 03:00N 35°27' E 139°41'0 0.0
2018-Feb-22 02:30N 35°27' E 139°41'1 2.0
2018-Feb-22 02:00N 35°27' E 139°42'0 0.0
2018-Feb-22 01:30N 35°27' E 139°42'0 0.0
2018-Feb-22 01:00N 35°27' E 139°42'0 0.0
2018-Feb-22 00:30N 35°27' E 139°42'1 1.7
2018-Feb-22 00:01N 35°28' E 139°42'1 2.1
2018-Feb-21 23:31N 35°27' E 139°43'1 1.3
2018-Feb-21 23:00N 35°27' E 139°42'2 4.0
2018-Feb-21 22:30N 35°27' E 139°39'0 0.0
2018-Feb-21 22:00N 35°27' E 139°39'0 0.0
2018-Feb-21 21:31N 35°27' E 139°39'0 0.0
2018-Feb-21 21:00N 35°27' E 139°39'0 0.0
2018-Feb-21 20:31N 35°27' E 139°39'0 0.0
2018-Feb-21 20:00N 35°27' E 139°39'0 0.0
2018-Feb-21 19:30N 35°27' E 139°39'0 0.0
2018-Feb-21 19:00N 35°27' E 139°39'0 0.0
2018-Feb-21 18:31N 35°27' E 139°39'0 0.0
2018-Feb-21 18:00N 35°27' E 139°39'0 0.0
2018-Feb-21 17:31N 35°27' E 139°39'0 0.0
2018-Feb-21 17:00N 35°27' E 139°39'0 0.0
2018-Feb-21 16:30N 35°27' E 139°39'0 0.0
2018-Feb-21 16:00N 35°27' E 139°39'0 0.0
2018-Feb-21 15:30N 35°27' E 139°39'0 0.0
2018-Feb-21 15:00N 35°27' E 139°39'0 0.0
2018-Feb-21 14:31N 35°27' E 139°39'0 0.0
2018-Feb-21 14:00N 35°27' E 139°39'0 0.0
2018-Feb-21 13:31N 35°27' E 139°39'0 0.0
2018-Feb-21 13:01N 35°27' E 139°39'0 0.0
2018-Feb-21 12:31N 35°27' E 139°39'0 0.0
2018-Feb-21 12:01N 35°27' E 139°39'0 0.0
2018-Feb-21 11:31N 35°27' E 139°39'0 0.0
2018-Feb-21 11:01N 35°27' E 139°39'0 0.0
2018-Feb-21 10:30N 35°27' E 139°39'0 0.0
2018-Feb-21 10:00N 35°27' E 139°39'0 0.0
2018-Feb-21 07:13N 35°27' E 139°39'0 0.0
2018-Feb-21 07:00N 35°27' E 139°39'0 0.0
2018-Feb-21 06:30N 35°27' E 139°39'0 0.0
2018-Feb-21 06:00N 35°27' E 139°39'0 0.0
2018-Feb-21 05:30N 35°27' E 139°39'0 0.0
2018-Feb-21 05:00N 35°27' E 139°39'1 2.7
2018-Feb-21 04:30N 35°27' E 139°41'3 6.8
2018-Feb-21 04:00N 35°24' E 139°40'2 3.5
2018-Feb-21 03:30N 35°24' E 139°38'0 0.0
2018-Feb-21 03:00N 35°24' E 139°38'0 0.3
2018-Feb-21 02:30N 35°24' E 139°38'3 5.0
2018-Feb-21 02:00N 35°23' E 139°41'2 3.5
2018-Feb-21 01:30N 35°24' E 139°42'1 2.3
2018-Feb-21 01:00N 35°26' E 139°42'0 0.0
2018-Feb-21 00:31N 35°26' E 139°42'0 0.0
2018-Feb-21 00:00N 35°26' E 139°42'1 1.4
2018-Feb-20 23:31N 35°26' E 139°42'1 1.9
2018-Feb-20 23:00N 35°27' E 139°41'1 2.3
2018-Feb-20 22:30N 35°26' E 139°42'1 3.0
2018-Feb-20 22:00N 35°28' E 139°42'1 2.7
2018-Feb-20 21:30N 35°27' E 139°43'2 4.8
2018-Feb-20 21:00N 35°27' E 139°40'1 1.1
2018-Feb-20 20:30N 35°27' E 139°39'0 0.0
2018-Feb-20 20:00N 35°27' E 139°39'0 0.0
2018-Feb-20 19:30N 35°27' E 139°39'0 0.0
2018-Feb-20 19:00N 35°27' E 139°39'0 0.0
2018-Feb-20 18:30N 35°27' E 139°39'0 0.0
2018-Feb-20 18:00N 35°27' E 139°39'0 0.0
2018-Feb-20 17:30N 35°27' E 139°39'0 0.0
2018-Feb-20 17:00N 35°27' E 139°39'0 0.0
2018-Feb-20 16:30N 35°27' E 139°39'0 0.0
2018-Feb-20 16:00N 35°27' E 139°39'0 0.0
2018-Feb-20 15:30N 35°27' E 139°39'0 0.0
2018-Feb-20 15:00N 35°27' E 139°39'0 0.0
2018-Feb-20 14:30N 35°27' E 139°39'0 0.0
2018-Feb-20 14:00N 35°27' E 139°39'0 0.0
2018-Feb-20 13:30N 35°27' E 139°39'0 0.0
2018-Feb-20 13:00N 35°27' E 139°39'0 0.0
2018-Feb-20 12:30N 35°27' E 139°39'0 0.0
2018-Feb-20 12:00N 35°27' E 139°39'0 0.0
2018-Feb-20 11:30N 35°27' E 139°39'0 0.0
2018-Feb-20 11:00N 35°27' E 139°39'0 0.0
2018-Feb-20 10:30N 35°27' E 139°39'0 0.0
2018-Feb-20 10:00N 35°27' E 139°39'0 1.0
2018-Feb-20 09:30N 35°27' E 139°40'2 3.1
2018-Feb-20 09:00N 35°28' E 139°42'0 0.5
2018-Feb-20 08:30N 35°28' E 139°41'2 3.7
2018-Feb-20 08:00N 35°27' E 139°39'0 0.1
2018-Feb-20 07:30N 35°27' E 139°39'0 0.0
2018-Feb-20 07:00N 35°27' E 139°39'0 0.0
2018-Feb-20 06:30N 35°27' E 139°39'0 0.0
2018-Feb-20 06:01N 35°27' E 139°39'0 0.0
2018-Feb-20 05:30N 35°27' E 139°39'0 0.0
2018-Feb-20 05:00N 35°27' E 139°39'0 0.0
2018-Feb-20 04:30N 35°27' E 139°39'0 0.0
2018-Feb-20 04:00N 35°27' E 139°39'0 0.0
2018-Feb-20 03:30N 35°27' E 139°39'0 0.0
2018-Feb-20 03:00N 35°27' E 139°39'0 0.0
2018-Feb-20 02:30N 35°27' E 139°39'0 0.0
2018-Feb-20 02:00N 35°27' E 139°39'0 0.0
2018-Feb-20 01:30N 35°27' E 139°39'0 0.0
2018-Feb-20 01:00N 35°27' E 139°39'0 0.0
2018-Feb-20 00:30N 35°27' E 139°39'2 3.2
2018-Feb-20 00:00N 35°28' E 139°41'4 7.8
2018-Feb-19 23:31N 35°30' E 139°45'2 4.5
2018-Feb-19 23:00N 35°29' E 139°42'3 6.3
2018-Feb-19 22:29N 35°27' E 139°39'0 0.0
2018-Feb-19 22:00N 35°27' E 139°39'0 0.0
2018-Feb-19 21:30N 35°27' E 139°39'0 0.0
2018-Feb-19 21:00N 35°27' E 139°39'0 0.0
2018-Feb-19 20:30N 35°27' E 139°39'0 0.0
2018-Feb-19 20:00N 35°27' E 139°39'0 0.0
2018-Feb-19 19:30N 35°27' E 139°39'0 0.0
2018-Feb-19 19:00N 35°27' E 139°39'0 0.0
2018-Feb-19 18:30N 35°27' E 139°39'0 0.0
2018-Feb-19 18:01N 35°27' E 139°39'0 0.0
2018-Feb-19 17:30N 35°27' E 139°39'0 0.0
2018-Feb-19 17:00N 35°27' E 139°39'0 0.0
2018-Feb-19 16:29N 35°27' E 139°39'0 0.0
2018-Feb-19 16:00N 35°27' E 139°39'0 0.0
2018-Feb-19 15:30N 35°27' E 139°39'0 0.0
2018-Feb-19 15:01N 35°27' E 139°39'0 0.0
2018-Feb-19 14:30N 35°27' E 139°39'0 0.0
2018-Feb-19 14:00N 35°27' E 139°39'0 0.0
2018-Feb-19 13:29N 35°27' E 139°39'0 0.0
2018-Feb-19 07:21N 35°27' E 139°39'0 0.0
2018-Feb-19 07:00N 35°27' E 139°39'0 0.0
2018-Feb-19 06:30N 35°27' E 139°39'0 0.0
2018-Feb-19 06:00N 35°27' E 139°39'0 0.0
2018-Feb-19 05:30N 35°27' E 139°39'0 0.0
2018-Feb-19 04:59N 35°27' E 139°39'0 0.0
2018-Feb-19 04:30N 35°27' E 139°39'0 0.0
2018-Feb-19 04:00N 35°27' E 139°39'0 0.0
2018-Feb-19 03:30N 35°27' E 139°39'0 0.0
2018-Feb-19 03:00N 35°27' E 139°39'0 0.2
2018-Feb-19 02:30N 35°27' E 139°39'0 0.0
2018-Feb-19 02:00N 35°27' E 139°39'2 3.5
2018-Feb-19 01:30N 35°27' E 139°41'3 6.8
2018-Feb-19 01:00N 35°23' E 139°41'1 2.2
2018-Feb-19 00:31N 35°23' E 139°39'2 3.6
2018-Feb-19 00:00N 35°22' E 139°41'3 5.3
2018-Feb-18 23:30N 35°25' E 139°42'3 5.6
2018-Feb-18 23:00N 35°27' E 139°39'0 0.0
2018-Feb-18 22:30N 35°27' E 139°39'0 0.0
2018-Feb-18 22:00N 35°27' E 139°39'0 0.0
2018-Feb-18 21:30N 35°27' E 139°39'0 0.0
2018-Feb-18 21:00N 35°27' E 139°39'0 0.0
2018-Feb-18 20:29N 35°27' E 139°39'0 0.0
2018-Feb-18 20:00N 35°27' E 139°39'0 0.0
2018-Feb-18 07:22N 35°27' E 139°39'0 0.0
2018-Feb-18 07:00N 35°27' E 139°39'0 0.0
2018-Feb-18 06:30N 35°27' E 139°39'0 0.0
2018-Feb-18 06:00N 35°27' E 139°39'0 0.0
2018-Feb-18 05:30N 35°27' E 139°39'0 0.0
2018-Feb-18 05:00N 35°27' E 139°39'0 0.0
2018-Feb-18 04:30N 35°27' E 139°39'0 0.0
2018-Feb-18 04:00N 35°27' E 139°39'0 0.0
2018-Feb-18 03:30N 35°27' E 139°39'0 0.0
2018-Feb-18 03:00N 35°27' E 139°39'0 0.0
2018-Feb-18 02:30N 35°27' E 139°39'0 0.0
2018-Feb-18 02:00N 35°27' E 139°39'0 0.0
2018-Feb-18 01:30N 35°27' E 139°39'0 0.0
2018-Feb-18 01:00N 35°27' E 139°39'0 0.0
2018-Feb-18 00:30N 35°27' E 139°39'0 0.0
2018-Feb-18 00:00N 35°27' E 139°39'0 0.0
2018-Feb-17 23:30N 35°27' E 139°39'0 0.0
2018-Feb-17 23:00N 35°27' E 139°39'0 0.0
2018-Feb-17 00:14N 35°27' E 139°39'0 0.0
2018-Feb-17 00:00N 35°27' E 139°39'2 3.2
2018-Feb-16 23:30N 35°28' E 139°41'0 0.1
2018-Feb-16 23:00N 35°28' E 139°41'1 1.5
2018-Feb-16 22:30N 35°28' E 139°42'2 4.9
2018-Feb-16 22:00N 35°27' E 139°44'1 1.5
2018-Feb-16 21:30N 35°27' E 139°45'1 2.9
2018-Feb-16 21:00N 35°28' E 139°44'0 0.0
2018-Feb-16 20:31N 35°28' E 139°44'0 0.0
2018-Feb-16 20:00N 35°28' E 139°44'0 0.0
2018-Feb-16 19:30N 35°28' E 139°44'0 0.0
2018-Feb-16 19:01N 35°28' E 139°44'0 0.0
2018-Feb-16 18:31N 35°28' E 139°44'0 0.0
2018-Feb-16 18:00N 35°28' E 139°44'0 0.0
2018-Feb-16 17:30N 35°28' E 139°44'3 6.3
2018-Feb-16 17:00N 35°30' E 139°47'3 6.3
2018-Feb-16 16:30N 35°30' E 139°43'0 0.0
2018-Feb-16 16:01N 35°30' E 139°43'1 2.4
2018-Feb-16 15:31N 35°29' E 139°42'1 2.8
2018-Feb-16 15:00N 35°28' E 139°42'0 0.0
2018-Feb-16 14:31N 35°28' E 139°42'0 0.0
2018-Feb-16 14:00N 35°28' E 139°42'0 0.1
2018-Feb-16 13:30N 35°28' E 139°42'0 0.0
2018-Feb-16 13:00N 35°28' E 139°42'0 0.1
2018-Feb-16 12:30N 35°28' E 139°42'0 0.1
2018-Feb-16 12:00N 35°28' E 139°42'0 0.0
2018-Feb-16 11:31N 35°28' E 139°42'0 0.0
2018-Feb-16 11:01N 35°28' E 139°42'0 0.0
2018-Feb-16 10:31N 35°28' E 139°42'0 0.3
2018-Feb-16 10:00N 35°28' E 139°42'2 4.4
2018-Feb-16 09:30N 35°29' E 139°44'0 0.0
2018-Feb-16 09:00N 35°29' E 139°44'1 1.1
2018-Feb-16 08:30N 35°28' E 139°45'2 3.2
2018-Feb-16 08:01N 35°27' E 139°45'2 4.9
2018-Feb-16 07:31N 35°27' E 139°42'0 0.1
2018-Feb-16 07:00N 35°27' E 139°42'0 0.0
2018-Feb-16 06:30N 35°27' E 139°42'2 4.3
2018-Feb-16 06:00N 35°29' E 139°43'0 0.3
2018-Feb-16 05:30N 35°29' E 139°43'3 6.9
2018-Feb-16 05:00N 35°27' E 139°39'0 0.9
2018-Feb-16 04:30N 35°27' E 139°39'0 0.0
2018-Feb-16 04:00N 35°27' E 139°39'0 0.0
2018-Feb-16 03:30N 35°27' E 139°39'0 0.0
2018-Feb-16 02:59N 35°27' E 139°39'0 0.0
2018-Feb-16 02:30N 35°27' E 139°39'0 0.0
2018-Feb-16 02:00N 35°27' E 139°39'0 0.0
2018-Feb-16 01:31N 35°27' E 139°39'0 0.0
2018-Feb-16 01:01N 35°27' E 139°39'0 0.0
2018-Feb-16 00:31N 35°27' E 139°39'0 0.0
2018-Feb-16 00:00N 35°27' E 139°39'0 0.0
2018-Feb-15 23:31N 35°27' E 139°39'0 0.0
2018-Feb-15 23:00N 35°27' E 139°39'0 0.0
2018-Feb-15 22:31N 35°27' E 139°39'0 0.0
2018-Feb-15 22:01N 35°27' E 139°39'0 0.0
2018-Feb-15 21:31N 35°27' E 139°39'0 0.0
2018-Feb-15 21:01N 35°27' E 139°39'0 0.0
2018-Feb-15 20:30N 35°27' E 139°39'0 0.0
2018-Feb-15 20:01N 35°27' E 139°39'0 0.0
2018-Feb-15 19:30N 35°27' E 139°39'0 0.0
2018-Feb-15 19:01N 35°27' E 139°39'0 0.0
2018-Feb-15 18:31N 35°27' E 139°39'0 0.0
2018-Feb-15 18:01N 35°27' E 139°39'0 0.0
2018-Feb-15 17:31N 35°27' E 139°39'0 0.0
2018-Feb-15 17:01N 35°27' E 139°39'0 0.0
2018-Feb-15 16:31N 35°27' E 139°39'0 0.0
2018-Feb-15 16:01N 35°27' E 139°39'0 0.0
2018-Feb-15 15:31N 35°27' E 139°39'0 0.0
2018-Feb-15 15:01N 35°27' E 139°39'0 0.0
2018-Feb-15 14:31N 35°27' E 139°39'0 0.0
2018-Feb-15 14:01N 35°27' E 139°39'0 0.0
2018-Feb-15 13:30N 35°27' E 139°39'0 0.0
2018-Feb-15 13:01N 35°27' E 139°39'0 0.0
2018-Feb-15 12:31N 35°27' E 139°39'0 0.0
2018-Feb-15 12:01N 35°27' E 139°39'0 0.0
2018-Feb-15 11:31N 35°27' E 139°39'0 0.0
2018-Feb-15 11:00N 35°27' E 139°39'0 0.0
2018-Feb-15 10:31N 35°27' E 139°39'0 0.0
2018-Feb-15 10:01N 35°27' E 139°39'0 0.0
2018-Feb-15 09:30N 35°27' E 139°39'0 0.0
2018-Feb-15 09:01N 35°27' E 139°39'0 0.0
2018-Feb-15 07:11N 35°27' E 139°39'0 0.0
2018-Feb-15 07:00N 35°27' E 139°39'0 0.0
2018-Feb-15 06:30N 35°27' E 139°39'0 0.0
2018-Feb-15 06:00N 35°27' E 139°39'0 0.0
2018-Feb-15 05:30N 35°27' E 139°39'0 0.0
2018-Feb-15 05:00N 35°27' E 139°39'0 0.0
2018-Feb-15 04:30N 35°27' E 139°39'0 0.0
2018-Feb-15 04:00N 35°27' E 139°39'0 0.0
2018-Feb-15 03:30N 35°27' E 139°39'0 0.0
2018-Feb-15 03:00N 35°27' E 139°39'0 0.0
2018-Feb-15 02:30N 35°27' E 139°39'0 0.0
2018-Feb-15 02:00N 35°27' E 139°39'0 0.0
2018-Feb-15 01:30N 35°27' E 139°39'0 0.0
2018-Feb-15 01:00N 35°27' E 139°39'0 0.1
2018-Feb-15 00:31N 35°27' E 139°39'4 8.2
2018-Feb-15 00:00N 35°30' E 139°43'0 0.3
2018-Feb-14 23:30N 35°30' E 139°43'3 6.6
2018-Feb-14 23:00N 35°28' E 139°40'1 2.0
2018-Feb-14 22:30N 35°27' E 139°39'0 0.0
2018-Feb-14 22:00N 35°27' E 139°39'0 0.0
2018-Feb-14 21:30N 35°27' E 139°39'0 0.0
2018-Feb-14 21:00N 35°27' E 139°39'0 0.0
2018-Feb-14 20:30N 35°27' E 139°39'0 0.0
2018-Feb-14 20:00N 35°27' E 139°39'0 0.0
2018-Feb-14 19:30N 35°27' E 139°39'0 0.0
2018-Feb-14 19:00N 35°27' E 139°39'0 0.0
2018-Feb-14 18:30N 35°27' E 139°39'0 0.0
2018-Feb-14 18:00N 35°27' E 139°39'0 0.0
2018-Feb-14 17:30N 35°27' E 139°39'0 0.0
2018-Feb-14 17:00N 35°27' E 139°39'0 0.0
2018-Feb-14 16:30N 35°27' E 139°39'0 0.0
2018-Feb-14 16:00N 35°27' E 139°39'0 0.0
2018-Feb-14 15:30N 35°27' E 139°39'0 0.0
2018-Feb-14 15:00N 35°27' E 139°39'0 0.0
2018-Feb-14 14:30N 35°27' E 139°39'0 0.0
2018-Feb-14 14:00N 35°27' E 139°39'0 0.0
2018-Feb-14 13:30N 35°27' E 139°39'0 0.0
2018-Feb-14 13:00N 35°27' E 139°39'0 0.0
2018-Feb-14 12:30N 35°27' E 139°39'0 0.0
2018-Feb-14 12:00N 35°27' E 139°39'0 0.0
2018-Feb-14 11:31N 35°27' E 139°39'0 0.0
2018-Feb-14 11:00N 35°27' E 139°39'0 0.0
2018-Feb-14 10:31N 35°27' E 139°39'0 0.0
2018-Feb-14 10:00N 35°27' E 139°39'0 0.0
2018-Feb-14 09:30N 35°27' E 139°39'0 0.0
2018-Feb-14 09:00N 35°27' E 139°39'  
Track history (hours):
 
Tides and Currents Weather Stations Pressure Air Temp Water Temp Dewpoint Dewpoint Depression Visibility Wind Speed Wind Dir Waves Ship Positions

Yumihari

Last reported at 2018-Feb-24 08:30 UTC. Time now 2018-Feb-24 08:37 UTC.
Position N 35°27' E 139°39'.

Length 35 m; draft 4 m.

Type: Tug. MMSI: 431000397.

Date/timePositionNaut miles runAvg speedWind from/ knotsBaromVisibWave heightAir tempDewpointWater temp
2018-Feb-24 08:30N 35°27' E 139°39'0 0.0
2018-Feb-24 08:01N 35°27' E 139°39'0 0.0
2018-Feb-24 07:30N 35°27' E 139°39'0 0.0
2018-Feb-24 07:00N 35°27' E 139°39'0 0.0
2018-Feb-24 06:31N 35°27' E 139°39'0 0.0
2018-Feb-24 06:00N 35°27' E 139°39'0 0.0
2018-Feb-24 05:30N 35°27' E 139°39'0 0.0
2018-Feb-24 05:01N 35°27' E 139°39'0 0.0
2018-Feb-24 04:30N 35°27' E 139°39'0 0.0
2018-Feb-24 04:00N 35°27' E 139°39'0 0.0
2018-Feb-24 03:30N 35°27' E 139°39'0 0.0
2018-Feb-24 03:00N 35°27' E 139°39'0 0.0
2018-Feb-24 02:30N 35°27' E 139°39'0 0.0
2018-Feb-24 02:00N 35°27' E 139°39'0 0.0
2018-Feb-24 01:30N 35°27' E 139°39'0 0.0
2018-Feb-24 01:00N 35°27' E 139°39'0 0.0
2018-Feb-24 00:31N 35°27' E 139°39'0 0.0
2018-Feb-24 00:00N 35°27' E 139°39'0 0.0
2018-Feb-23 23:30N 35°27' E 139°39'0 0.6
2018-Feb-23 23:01N 35°27' E 139°39'2 3.0
2018-Feb-23 22:31N 35°27' E 139°41'0 0.6
2018-Feb-23 22:00N 35°27' E 139°41'2 4.2
2018-Feb-23 21:30N 35°26' E 139°43'2 4.4
2018-Feb-23 21:01N 35°27' E 139°41'1 2.8
2018-Feb-23 20:30N 35°27' E 139°39'0 0.0
2018-Feb-23 20:00N 35°27' E 139°39'0 0.0
2018-Feb-23 19:30N 35°27' E 139°39'0 0.0
2018-Feb-23 19:01N 35°27' E 139°39'0 0.0
2018-Feb-23 18:30N 35°27' E 139°39'0 0.0
2018-Feb-23 18:00N 35°27' E 139°39'0 0.0
2018-Feb-23 17:30N 35°27' E 139°39'0 0.0
2018-Feb-23 17:00N 35°27' E 139°39'0 0.0
2018-Feb-23 16:30N 35°27' E 139°39'0 0.0
2018-Feb-23 16:00N 35°27' E 139°39'0 0.0
2018-Feb-23 15:30N 35°27' E 139°39'0 0.0
2018-Feb-23 15:00N 35°27' E 139°39'0 0.0
2018-Feb-23 14:30N 35°27' E 139°39'0 0.0
2018-Feb-23 14:00N 35°27' E 139°39'0 0.0
2018-Feb-23 13:30N 35°27' E 139°39'0 0.0
2018-Feb-23 07:20N 35°27' E 139°39'0 0.0
2018-Feb-23 07:00N 35°27' E 139°39'4 8.1
2018-Feb-23 06:30N 35°28' E 139°44'3 6.7
2018-Feb-23 06:00N 35°31' E 139°46'0 0.0
2018-Feb-23 05:30N 35°31' E 139°46'0 0.4
2018-Feb-23 05:00N 35°31' E 139°46'1 2.4
2018-Feb-23 04:30N 35°30' E 139°47'1 1.4
2018-Feb-23 04:00N 35°29' E 139°47'0 0.0
2018-Feb-23 03:30N 35°29' E 139°47'0 1.0
2018-Feb-23 03:01N 35°29' E 139°46'510.0
2018-Feb-23 02:31N 35°28' E 139°40'0 0.4
2018-Feb-23 02:01N 35°28' E 139°40'0 0.1
2018-Feb-23 01:31N 35°28' E 139°40'1 2.2
2018-Feb-23 01:01N 35°27' E 139°41'0 0.6
2018-Feb-23 00:31N 35°27' E 139°40'0 0.2
2018-Feb-23 00:01N 35°27' E 139°40'1 1.5
2018-Feb-22 23:31N 35°27' E 139°39'0 0.0
2018-Feb-22 23:01N 35°27' E 139°39'0 0.0
2018-Feb-22 22:30N 35°27' E 139°39'0 0.0
2018-Feb-22 22:00N 35°27' E 139°39'0 0.0
2018-Feb-22 21:31N 35°27' E 139°39'0 0.0
2018-Feb-22 21:00N 35°27' E 139°39'0 0.0
2018-Feb-22 20:30N 35°27' E 139°39'0 0.0
2018-Feb-22 20:00N 35°27' E 139°39'0 0.0
2018-Feb-22 19:30N 35°27' E 139°39'0 0.0
2018-Feb-22 19:00N 35°27' E 139°39'0 0.0
2018-Feb-22 18:31N 35°27' E 139°39'0 0.0
2018-Feb-22 18:00N 35°27' E 139°39'0 0.0
2018-Feb-22 17:30N 35°27' E 139°39'0 0.0
2018-Feb-22 17:00N 35°27' E 139°39'0 0.0
2018-Feb-22 16:30N 35°27' E 139°39'0 0.0
2018-Feb-22 16:00N 35°27' E 139°39'0 0.0
2018-Feb-22 15:30N 35°27' E 139°39'0 0.0
2018-Feb-22 15:00N 35°27' E 139°39'0 0.0
2018-Feb-22 14:31N 35°27' E 139°39'0 0.0
2018-Feb-22 14:00N 35°27' E 139°39'0 0.0
2018-Feb-22 13:31N 35°27' E 139°39'0 0.0
2018-Feb-22 13:00N 35°27' E 139°39'0 0.0
2018-Feb-22 12:30N 35°27' E 139°39'0 0.0
2018-Feb-22 12:00N 35°27' E 139°39'0 0.0
2018-Feb-22 11:31N 35°27' E 139°39'0 0.0
2018-Feb-22 11:00N 35°27' E 139°39'0 0.0
2018-Feb-22 10:30N 35°27' E 139°39'0 0.0
2018-Feb-22 10:00N 35°27' E 139°39'0 0.0
2018-Feb-22 09:30N 35°27' E 139°39'0 0.0
2018-Feb-22 09:00N 35°27' E 139°39'0 0.0
2018-Feb-22 07:11N 35°27' E 139°39'0 0.0
2018-Feb-22 07:00N 35°27' E 139°39'0 0.1
2018-Feb-22 06:30N 35°27' E 139°39'1 2.2
2018-Feb-22 06:00N 35°28' E 139°40'0 0.0
2018-Feb-22 05:31N 35°28' E 139°40'0 0.0
2018-Feb-22 05:01N 35°28' E 139°40'0 0.0
2018-Feb-22 04:30N 35°28' E 139°40'0 0.0
2018-Feb-22 04:01N 35°28' E 139°40'1 1.9
2018-Feb-22 03:30N 35°27' E 139°41'0 0.4
2018-Feb-22 03:00N 35°27' E 139°41'0 0.0
2018-Feb-22 02:30N 35°27' E 139°41'1 2.0
2018-Feb-22 02:00N 35°27' E 139°42'0 0.0
2018-Feb-22 01:30N 35°27' E 139°42'0 0.0
2018-Feb-22 01:00N 35°27' E 139°42'0 0.0
2018-Feb-22 00:30N 35°27' E 139°42'1 1.7
2018-Feb-22 00:01N 35°28' E 139°42'1 2.1
2018-Feb-21 23:31N 35°27' E 139°43'1 1.3
2018-Feb-21 23:00N 35°27' E 139°42'2 4.0
2018-Feb-21 22:30N 35°27' E 139°39'0 0.0
2018-Feb-21 22:00N 35°27' E 139°39'0 0.0
2018-Feb-21 21:31N 35°27' E 139°39'0 0.0
2018-Feb-21 21:00N 35°27' E 139°39'0 0.0
2018-Feb-21 20:31N 35°27' E 139°39'0 0.0
2018-Feb-21 20:00N 35°27' E 139°39'0 0.0
2018-Feb-21 19:30N 35°27' E 139°39'0 0.0
2018-Feb-21 19:00N 35°27' E 139°39'0 0.0
2018-Feb-21 18:31N 35°27' E 139°39'0 0.0
2018-Feb-21 18:00N 35°27' E 139°39'0 0.0
2018-Feb-21 17:31N 35°27' E 139°39'0 0.0
2018-Feb-21 17:00N 35°27' E 139°39'0 0.0
2018-Feb-21 16:30N 35°27' E 139°39'0 0.0
2018-Feb-21 16:00N 35°27' E 139°39'0 0.0
2018-Feb-21 15:30N 35°27' E 139°39'0 0.0
2018-Feb-21 15:00N 35°27' E 139°39'0 0.0
2018-Feb-21 14:31N 35°27' E 139°39'0 0.0
2018-Feb-21 14:00N 35°27' E 139°39'0 0.0
2018-Feb-21 13:31N 35°27' E 139°39'0 0.0
2018-Feb-21 13:01N 35°27' E 139°39'0 0.0
2018-Feb-21 12:31N 35°27' E 139°39'0 0.0
2018-Feb-21 12:01N 35°27' E 139°39'0 0.0
2018-Feb-21 11:31N 35°27' E 139°39'0 0.0
2018-Feb-21 11:01N 35°27' E 139°39'0 0.0
2018-Feb-21 10:30N 35°27' E 139°39'0 0.0
2018-Feb-21 10:00N 35°27' E 139°39'0 0.0
2018-Feb-21 07:13N 35°27' E 139°39'0 0.0
2018-Feb-21 07:00N 35°27' E 139°39'0 0.0
2018-Feb-21 06:30N 35°27' E 139°39'0 0.0
2018-Feb-21 06:00N 35°27' E 139°39'0 0.0
2018-Feb-21 05:30N 35°27' E 139°39'0 0.0
2018-Feb-21 05:00N 35°27' E 139°39'1 2.7
2018-Feb-21 04:30N 35°27' E 139°41'3 6.8
2018-Feb-21 04:00N 35°24' E 139°40'2 3.5
2018-Feb-21 03:30N 35°24' E 139°38'0 0.0
2018-Feb-21 03:00N 35°24' E 139°38'0 0.3
2018-Feb-21 02:30N 35°24' E 139°38'3 5.0
2018-Feb-21 02:00N 35°23' E 139°41'2 3.5
2018-Feb-21 01:30N 35°24' E 139°42'1 2.3
2018-Feb-21 01:00N 35°26' E 139°42'0 0.0
2018-Feb-21 00:31N 35°26' E 139°42'0 0.0
2018-Feb-21 00:00N 35°26' E 139°42'1 1.4
2018-Feb-20 23:31N 35°26' E 139°42'1 1.9
2018-Feb-20 23:00N 35°27' E 139°41'1 2.3
2018-Feb-20 22:30N 35°26' E 139°42'1 3.0
2018-Feb-20 22:00N 35°28' E 139°42'1 2.7
2018-Feb-20 21:30N 35°27' E 139°43'2 4.8
2018-Feb-20 21:00N 35°27' E 139°40'1 1.1
2018-Feb-20 20:30N 35°27' E 139°39'0 0.0
2018-Feb-20 20:00N 35°27' E 139°39'0 0.0
2018-Feb-20 19:30N 35°27' E 139°39'0 0.0
2018-Feb-20 19:00N 35°27' E 139°39'0 0.0
2018-Feb-20 18:30N 35°27' E 139°39'0 0.0
2018-Feb-20 18:00N 35°27' E 139°39'0 0.0
2018-Feb-20 17:30N 35°27' E 139°39'0 0.0
2018-Feb-20 17:00N 35°27' E 139°39'0 0.0
2018-Feb-20 16:30N 35°27' E 139°39'0 0.0
2018-Feb-20 16:00N 35°27' E 139°39'0 0.0
2018-Feb-20 15:30N 35°27' E 139°39'0 0.0
2018-Feb-20 15:00N 35°27' E 139°39'0 0.0
2018-Feb-20 14:30N 35°27' E 139°39'0 0.0
2018-Feb-20 14:00N 35°27' E 139°39'0 0.0
2018-Feb-20 13:30N 35°27' E 139°39'0 0.0
2018-Feb-20 13:00N 35°27' E 139°39'0 0.0
2018-Feb-20 12:30N 35°27' E 139°39'0 0.0
2018-Feb-20 12:00N 35°27' E 139°39'0 0.0
2018-Feb-20 11:30N 35°27' E 139°39'0 0.0
2018-Feb-20 11:00N 35°27' E 139°39'0 0.0
2018-Feb-20 10:30N 35°27' E 139°39'0 0.0
2018-Feb-20 10:00N 35°27' E 139°39'0 1.0
2018-Feb-20 09:30N 35°27' E 139°40'2 3.1
2018-Feb-20 09:00N 35°28' E 139°42'0 0.5
2018-Feb-20 08:30N 35°28' E 139°41'2 3.7
2018-Feb-20 08:00N 35°27' E 139°39'0 0.1
2018-Feb-20 07:30N 35°27' E 139°39'0 0.0
2018-Feb-20 07:00N 35°27' E 139°39'0 0.0
2018-Feb-20 06:30N 35°27' E 139°39'0 0.0
2018-Feb-20 06:01N 35°27' E 139°39'0 0.0
2018-Feb-20 05:30N 35°27' E 139°39'0 0.0
2018-Feb-20 05:00N 35°27' E 139°39'0 0.0
2018-Feb-20 04:30N 35°27' E 139°39'0 0.0
2018-Feb-20 04:00N 35°27' E 139°39'0 0.0
2018-Feb-20 03:30N 35°27' E 139°39'0 0.0
2018-Feb-20 03:00N 35°27' E 139°39'0 0.0
2018-Feb-20 02:30N 35°27' E 139°39'0 0.0
2018-Feb-20 02:00N 35°27' E 139°39'0 0.0
2018-Feb-20 01:30N 35°27' E 139°39'0 0.0
2018-Feb-20 01:00N 35°27' E 139°39'0 0.0
2018-Feb-20 00:30N 35°27' E 139°39'2 3.2
2018-Feb-20 00:00N 35°28' E 139°41'4 7.8
2018-Feb-19 23:31N 35°30' E 139°45'2 4.5
2018-Feb-19 23:00N 35°29' E 139°42'3 6.3
2018-Feb-19 22:29N 35°27' E 139°39'0 0.0
2018-Feb-19 22:00N 35°27' E 139°39'0 0.0
2018-Feb-19 21:30N 35°27' E 139°39'0 0.0
2018-Feb-19 21:00N 35°27' E 139°39'0 0.0
2018-Feb-19 20:30N 35°27' E 139°39'0 0.0
2018-Feb-19 20:00N 35°27' E 139°39'0 0.0
2018-Feb-19 19:30N 35°27' E 139°39'0 0.0
2018-Feb-19 19:00N 35°27' E 139°39'0 0.0
2018-Feb-19 18:30N 35°27' E 139°39'0 0.0
2018-Feb-19 18:01N 35°27' E 139°39'0 0.0
2018-Feb-19 17:30N 35°27' E 139°39'0 0.0
2018-Feb-19 17:00N 35°27' E 139°39'0 0.0
2018-Feb-19 16:29N 35°27' E 139°39'0 0.0
2018-Feb-19 16:00N 35°27' E 139°39'0 0.0
2018-Feb-19 15:30N 35°27' E 139°39'0 0.0
2018-Feb-19 15:01N 35°27' E 139°39'0 0.0
2018-Feb-19 14:30N 35°27' E 139°39'0 0.0
2018-Feb-19 14:00N 35°27' E 139°39'0 0.0
2018-Feb-19 13:29N 35°27' E 139°39'0 0.0
2018-Feb-19 07:21N 35°27' E 139°39'0 0.0
2018-Feb-19 07:00N 35°27' E 139°39'0 0.0
2018-Feb-19 06:30N 35°27' E 139°39'0 0.0
2018-Feb-19 06:00N 35°27' E 139°39'0 0.0
2018-Feb-19 05:30N 35°27' E 139°39'0 0.0
2018-Feb-19 04:59N 35°27' E 139°39'0 0.0
2018-Feb-19 04:30N 35°27' E 139°39'0 0.0
2018-Feb-19 04:00N 35°27' E 139°39'0 0.0
2018-Feb-19 03:30N 35°27' E 139°39'0 0.0
2018-Feb-19 03:00N 35°27' E 139°39'0 0.2
2018-Feb-19 02:30N 35°27' E 139°39'0 0.0
2018-Feb-19 02:00N 35°27' E 139°39'2 3.5
2018-Feb-19 01:30N 35°27' E 139°41'3 6.8
2018-Feb-19 01:00N 35°23' E 139°41'1 2.2
2018-Feb-19 00:31N 35°23' E 139°39'2 3.6
2018-Feb-19 00:00N 35°22' E 139°41'3 5.3
2018-Feb-18 23:30N 35°25' E 139°42'3 5.6
2018-Feb-18 23:00N 35°27' E 139°39'0 0.0
2018-Feb-18 22:30N 35°27' E 139°39'0 0.0
2018-Feb-18 22:00N 35°27' E 139°39'0 0.0
2018-Feb-18 21:30N 35°27' E 139°39'0 0.0
2018-Feb-18 21:00N 35°27' E 139°39'0 0.0
2018-Feb-18 20:29N 35°27' E 139°39'0 0.0
2018-Feb-18 20:00N 35°27' E 139°39'0 0.0
2018-Feb-18 07:22N 35°27' E 139°39'0 0.0
2018-Feb-18 07:00N 35°27' E 139°39'0 0.0
2018-Feb-18 06:30N 35°27' E 139°39'0 0.0
2018-Feb-18 06:00N 35°27' E 139°39'0 0.0
2018-Feb-18 05:30N 35°27' E 139°39'0 0.0
2018-Feb-18 05:00N 35°27' E 139°39'0 0.0
2018-Feb-18 04:30N 35°27' E 139°39'0 0.0
2018-Feb-18 04:00N 35°27' E 139°39'0 0.0
2018-Feb-18 03:30N 35°27' E 139°39'0 0.0
2018-Feb-18 03:00N 35°27' E 139°39'0 0.0
2018-Feb-18 02:30N 35°27' E 139°39'0 0.0
2018-Feb-18 02:00N 35°27' E 139°39'0 0.0
2018-Feb-18 01:30N 35°27' E 139°39'0 0.0
2018-Feb-18 01:00N 35°27' E 139°39'0 0.0
2018-Feb-18 00:30N 35°27' E 139°39'0 0.0
2018-Feb-18 00:00N 35°27' E 139°39'0 0.0
2018-Feb-17 23:30N 35°27' E 139°39'0 0.0
2018-Feb-17 23:00N 35°27' E 139°39'0 0.0
2018-Feb-17 00:14N 35°27' E 139°39'0 0.0
2018-Feb-17 00:00N 35°27' E 139°39'2 3.2
2018-Feb-16 23:30N 35°28' E 139°41'0 0.1
2018-Feb-16 23:00N 35°28' E 139°41'1 1.5
2018-Feb-16 22:30N 35°28' E 139°42'2 4.9
2018-Feb-16 22:00N 35°27' E 139°44'1 1.5
2018-Feb-16 21:30N 35°27' E 139°45'1 2.9
2018-Feb-16 21:00N 35°28' E 139°44'0 0.0
2018-Feb-16 20:31N 35°28' E 139°44'0 0.0
2018-Feb-16 20:00N 35°28' E 139°44'0 0.0
2018-Feb-16 19:30N 35°28' E 139°44'0 0.0
2018-Feb-16 19:01N 35°28' E 139°44'0 0.0
2018-Feb-16 18:31N 35°28' E 139°44'0 0.0
2018-Feb-16 18:00N 35°28' E 139°44'0 0.0
2018-Feb-16 17:30N 35°28' E 139°44'3 6.3
2018-Feb-16 17:00N 35°30' E 139°47'3 6.3
2018-Feb-16 16:30N 35°30' E 139°43'0 0.0
2018-Feb-16 16:01N 35°30' E 139°43'1 2.4
2018-Feb-16 15:31N 35°29' E 139°42'1 2.8
2018-Feb-16 15:00N 35°28' E 139°42'0 0.0
2018-Feb-16 14:31N 35°28' E 139°42'0 0.0
2018-Feb-16 14:00N 35°28' E 139°42'0 0.1
2018-Feb-16 13:30N 35°28' E 139°42'0 0.0
2018-Feb-16 13:00N 35°28' E 139°42'0 0.1
2018-Feb-16 12:30N 35°28' E 139°42'0 0.1
2018-Feb-16 12:00N 35°28' E 139°42'0 0.0
2018-Feb-16 11:31N 35°28' E 139°42'0 0.0
2018-Feb-16 11:01N 35°28' E 139°42'0 0.0
2018-Feb-16 10:31N 35°28' E 139°42'0 0.3
2018-Feb-16 10:00N 35°28' E 139°42'2 4.4
2018-Feb-16 09:30N 35°29' E 139°44'0 0.0
2018-Feb-16 09:00N 35°29' E 139°44'1 1.1
2018-Feb-16 08:30N 35°28' E 139°45'2 3.2
2018-Feb-16 08:01N 35°27' E 139°45'2 4.9
2018-Feb-16 07:31N 35°27' E 139°42'0 0.1
2018-Feb-16 07:00N 35°27' E 139°42'0 0.0
2018-Feb-16 06:30N 35°27' E 139°42'2 4.3
2018-Feb-16 06:00N 35°29' E 139°43'0 0.3
2018-Feb-16 05:30N 35°29' E 139°43'3 6.9
2018-Feb-16 05:00N 35°27' E 139°39'0 0.9
2018-Feb-16 04:30N 35°27' E 139°39'0 0.0
2018-Feb-16 04:00N 35°27' E 139°39'0 0.0
2018-Feb-16 03:30N 35°27' E 139°39'0 0.0
2018-Feb-16 02:59N 35°27' E 139°39'0 0.0
2018-Feb-16 02:30N 35°27' E 139°39'0 0.0
2018-Feb-16 02:00N 35°27' E 139°39'0 0.0
2018-Feb-16 01:31N 35°27' E 139°39'0 0.0
2018-Feb-16 01:01N 35°27' E 139°39'0 0.0
2018-Feb-16 00:31N 35°27' E 139°39'0 0.0
2018-Feb-16 00:00N 35°27' E 139°39'0 0.0
2018-Feb-15 23:31N 35°27' E 139°39'0 0.0
2018-Feb-15 23:00N 35°27' E 139°39'0 0.0
2018-Feb-15 22:31N 35°27' E 139°39'0 0.0
2018-Feb-15 22:01N 35°27' E 139°39'0 0.0
2018-Feb-15 21:31N 35°27' E 139°39'0 0.0
2018-Feb-15 21:01N 35°27' E 139°39'0 0.0
2018-Feb-15 20:30N 35°27' E 139°39'0 0.0
2018-Feb-15 20:01N 35°27' E 139°39'0 0.0
2018-Feb-15 19:30N 35°27' E 139°39'0 0.0
2018-Feb-15 19:01N 35°27' E 139°39'0 0.0
2018-Feb-15 18:31N 35°27' E 139°39'0 0.0
2018-Feb-15 18:01N 35°27' E 139°39'0 0.0
2018-Feb-15 17:31N 35°27' E 139°39'0 0.0
2018-Feb-15 17:01N 35°27' E 139°39'0 0.0
2018-Feb-15 16:31N 35°27' E 139°39'0 0.0
2018-Feb-15 16:01N 35°27' E 139°39'0 0.0
2018-Feb-15 15:31N 35°27' E 139°39'0 0.0
2018-Feb-15 15:01N 35°27' E 139°39'0 0.0
2018-Feb-15 14:31N 35°27' E 139°39'0 0.0
2018-Feb-15 14:01N 35°27' E 139°39'0 0.0
2018-Feb-15 13:30N 35°27' E 139°39'0 0.0
2018-Feb-15 13:01N 35°27' E 139°39'0 0.0
2018-Feb-15 12:31N 35°27' E 139°39'0 0.0
2018-Feb-15 12:01N 35°27' E 139°39'0 0.0
2018-Feb-15 11:31N 35°27' E 139°39'0 0.0
2018-Feb-15 11:00N 35°27' E 139°39'0 0.0
2018-Feb-15 10:31N 35°27' E 139°39'0 0.0
2018-Feb-15 10:01N 35°27' E 139°39'0 0.0
2018-Feb-15 09:30N 35°27' E 139°39'0 0.0
2018-Feb-15 09:01N 35°27' E 139°39'0 0.0
2018-Feb-15 07:11N 35°27' E 139°39'0 0.0
2018-Feb-15 07:00N 35°27' E 139°39'0 0.0
2018-Feb-15 06:30N 35°27' E 139°39'0 0.0
2018-Feb-15 06:00N 35°27' E 139°39'0 0.0
2018-Feb-15 05:30N 35°27' E 139°39'0 0.0
2018-Feb-15 05:00N 35°27' E 139°39'0 0.0
2018-Feb-15 04:30N 35°27' E 139°39'0 0.0
2018-Feb-15 04:00N 35°27' E 139°39'0 0.0
2018-Feb-15 03:30N 35°27' E 139°39'0 0.0
2018-Feb-15 03:00N 35°27' E 139°39'0 0.0
2018-Feb-15 02:30N 35°27' E 139°39'0 0.0
2018-Feb-15 02:00N 35°27' E 139°39'0 0.0
2018-Feb-15 01:30N 35°27' E 139°39'0 0.0
2018-Feb-15 01:00N 35°27' E 139°39'0 0.1
2018-Feb-15 00:31N 35°27' E 139°39'4 8.2
2018-Feb-15 00:00N 35°30' E 139°43'0 0.3
2018-Feb-14 23:30N 35°30' E 139°43'3 6.6
2018-Feb-14 23:00N 35°28' E 139°40'1 2.0
2018-Feb-14 22:30N 35°27' E 139°39'0 0.0
2018-Feb-14 22:00N 35°27' E 139°39'0 0.0
2018-Feb-14 21:30N 35°27' E 139°39'0 0.0
2018-Feb-14 21:00N 35°27' E 139°39'0 0.0
2018-Feb-14 20:30N 35°27' E 139°39'0 0.0
2018-Feb-14 20:00N 35°27' E 139°39'0 0.0
2018-Feb-14 19:30N 35°27' E 139°39'0 0.0
2018-Feb-14 19:00N 35°27' E 139°39'0 0.0
2018-Feb-14 18:30N 35°27' E 139°39'0 0.0
2018-Feb-14 18:00N 35°27' E 139°39'0 0.0
2018-Feb-14 17:30N 35°27' E 139°39'0 0.0
2018-Feb-14 17:00N 35°27' E 139°39'0 0.0
2018-Feb-14 16:30N 35°27' E 139°39'0 0.0
2018-Feb-14 16:00N 35°27' E 139°39'0 0.0
2018-Feb-14 15:30N 35°27' E 139°39'0 0.0
2018-Feb-14 15:00N 35°27' E 139°39'0 0.0
2018-Feb-14 14:30N 35°27' E 139°39'0 0.0
2018-Feb-14 14:00N 35°27' E 139°39'0 0.0
2018-Feb-14 13:30N 35°27' E 139°39'0 0.0
2018-Feb-14 13:00N 35°27' E 139°39'0 0.0
2018-Feb-14 12:30N 35°27' E 139°39'0 0.0
2018-Feb-14 12:00N 35°27' E 139°39'0 0.0
2018-Feb-14 11:31N 35°27' E 139°39'0 0.0
2018-Feb-14 11:00N 35°27' E 139°39'0 0.0
2018-Feb-14 10:31N 35°27' E 139°39'0 0.0
2018-Feb-14 10:00N 35°27' E 139°39'0 0.0
2018-Feb-14 09:30N 35°27' E 139°39'0 0.0
2018-Feb-14 09:00N 35°27' E 139°39'  

Dump ship's entire track history